METAR Data
IDs: Format: Raw Decoded Include TAF

Data at: 2109 UTC 17 Nov 2018

VTUK 172100Z VRB01KT 9999 FEW030 25/23 Q1011 NOSIG
VTUK 172000Z 31002KT 9999 FEW030 SCT100 24/23 Q1011 NOSIG
VTUK 171900Z 35001KT 9999 FEW030 SCT100 24/23 Q1011 NOSIG
VTUK 171800Z 00000KT 9999 FEW030 SCT100 25/23 Q1011 NOSIG
VTUK 171700Z VRB01KT 9999 FEW030 SCT100 26/23 Q1012 NOSIG
VTUK 171600Z VRB02KT 9999 SCT030 SCT100 26/23 Q1012 NOSIG
VTUK 171500Z VRB02KT 9999 SCT030 SCT100 26/23 Q1012 NOSIG
VTUK 171400Z 00000KT 9999 FEW030 SCT100 27/23 Q1012 NOSIG
VTUK 171300Z 08003KT 060V120 9999 FEW030 29/22 Q1011 NOSIG
VTUK 171200Z 07003KT 040V110 9999 FEW030 29/22 Q1010 NOSIG
VTUK 171100Z 07003KT 040V100 9999 FEW030 31/22 Q1009 NOSIG
VTUK 171000Z 08004KT 9999 SCT030 35/22 Q1009 NOSIG
VTUK 170900Z VRB02KT 9999 SCT030 SCT100 37/22 Q1008 NOSIG
VTUK 170800Z VRB03KT 9999 SCT030 38/21 Q1009 NOSIG
VTUK 170700Z VRB03KT 9999 SCT030 37/21 Q1009 NOSIG
VTUK 170600Z VRB04KT 9000 SCT030 36/21 Q1010 NOSIG
VTUK 170500Z VRB03KT 9000 SCT030 35/22 Q1011 NOSIG
VTUK 170400Z VRB03KT 9000 SCT030 35/23 Q1013 NOSIG
VTUK 170300Z VRB03KT 8000 FEW030 34/23 Q1014 NOSIG
VTUK 170200Z VRB02KT 8000 FEW030 32/24 Q1014 NOSIG
VTUK 170100Z 09003KT 040V150 7000 FEW030 29/23 Q1013 NOSIG
VTUK 170000Z 05003KT 020V090 7000 FEW030 24/23 Q1012 NOSIG
VTUK 162300Z 02002KT 7000 FEW030 23/22 Q1012 NOSIG
VTUK 162200Z 01002KT 8000 NSC 24/22 Q1011 NOSIG
VTUK 162100Z 03002KT 8000 NSC 24/22 Q1011 NOSIG
VTUK 162000Z VRB02KT 8000 NSC 24/22 Q1011 NOSIG
VTUK 161900Z 35004KT 320V020 8000 NSC 24/22 Q1011 NOSIG
VTUK 161800Z 02002KT 8000 NSC 24/22 Q1011 NOSIG
VTUK 161700Z 00000KT 8000 NSC 24/23 Q1012 NOSIG
VTUK 161600Z 33002KT 8000 NSC 25/23 Q1012 NOSIG
VTUK 161500Z 00000KT 8000 NSC 26/23 Q1012 NOSIG
VTUK 161400Z 24001KT 8000 NSC 26/22 Q1012 NOSIG
VTUK 161300Z 09002KT 8000 NSC 28/22 Q1011 NOSIG
VTUK 161200Z 08003KT 9000 NSC 29/22 Q1010 NOSIG
VTUK 161100Z 08002KT 9000 FEW035 29/22 Q1009 NOSIG
VTUK 161000Z 07003KT 030V110 9999 FEW035 35/23 Q1009 NOSIG

VTUD 171500Z 00000KT 9999 SCT045 27/22 Q1012 NOSIG
VTUD 171400Z 00000KT 9999 SCT045 28/22 Q1012 NOSIG
VTUD 171300Z 00000KT 9999 FEW045 28/22 Q1011 NOSIG
VTUD 171200Z 00000KT 9999 FEW030 28/23 Q1011 NOSIG
VTUD 171100Z 00000KT 9999 FEW030 29/22 Q1010 NOSIG
VTUD 171000Z VRB02KT 9999 FEW020TCU SCT045 32/23 Q1009 NOSIG
VTUD 170900Z 00000KT 9999 FEW045 33/22 Q1009 NOSIG
VTUD 170800Z VRB02KT 9999 SCT045 35/21 Q1009 NOSIG
VTUD 170700Z VRB03KT 9999 SCT045 34/22 Q1009 NOSIG
VTUD 170600Z VRB03KT 9999 FEW045 35/23 Q1011 NOSIG
VTUD 170500Z 18003KT 090V260 9999 FEW040 34/23 Q1012 NOSIG
VTUD 170400Z VRB03KT 9999 FEW030 32/23 Q1013 NOSIG
VTUD 170300Z VRB01KT 9000 NSC 31/23 Q1014 NOSIG
VTUD 170200Z VRB02KT 8000 NSC 30/23 Q1014 NOSIG
VTUD 170100Z VRB01KT 7000 NSC 27/24 Q1013 NOSIG
VTUD 170000Z 00000KT 5000 BR FEW043 25/24 Q1013 NOSIG
VTUD 162300Z 00000KT 8000 FEW010 24/23 Q1012 NOSIG
VTUD 162200Z 00000KT 9000 NSC 24/24 Q1011 NOSIG
VTUD 161500Z 00000KT 9000 NSC 26/24 Q1012 NOSIG
VTUD 161400Z 00000KT 9000 NSC 26/23 Q1012 NOSIG
VTUD 161300Z 00000KT CAVOK 27/23 Q1011 NOSIG
VTUD 161200Z 00000KT CAVOK 28/23 Q1010 NOSIG
VTUD 161100Z 00000KT CAVOK 29/23 Q1009 NOSIG
VTUD 161000Z VRB02KT 9999 FEW045 34/22 Q1009 NOSIG

VTUL 171800Z 00000KT 9999 FEW030 23/22 Q1013 NOSIG
VTUL 171700Z VRB02KT 9999 FEW030 23/22 Q1013 NOSIG
VTUL 171600Z VRB02KT 9000 FEW030 23/23 Q1014 NOSIG
VTUL 171500Z VRB02KT 9000 FEW030 23/23 Q1013 NOSIG
VTUL 171400Z 9000 FEW030 24/23 Q1013 NOSIG
VTUL 171300Z 00000KT 9999 FEW030 24/23 Q1012 NOSIG
VTUL 171200Z 25004KT 9999 SCT030 25/24 Q1012 NOSIG
VTUL 171100Z VRB02KT 9999 SCT030 26/23 Q1011 NOSIG
VTUL 171000Z 02004KT 360V060 9999 BKN030 BKN080 27/22 Q1010 NOSIG
VTUL 170900Z 29005KT 250V320 9999 BKN030 BKN080 29/22 Q1010 NOSIG
VTUL 170800Z 27005KT 9999 BKN030 32/24 Q1009 NOSIG
VTUL 170700Z VRB02KT 9999 SCT030 34/23 Q1010 NOSIG
VTUL 170600Z VRB03KT 9999 SCT030 32/23 Q1010 NOSIG
VTUL 170500Z VRB02KT 9999 SCT030 32/25 Q1012 NOSIG
VTUL 170400Z VRB01KT 9999 FEW030 31/25 Q1014 NOSIG
VTUL 170300Z 01004KT 310V070 9999 FEW030 29/25 Q1015 NOSIG
VTUL 170200Z 33004KT 280V010 9999 FEW030 27/24 Q1015 NOSIG
VTUL 170100Z 32004KT 280V010 9999 FEW030 25/24 Q1014 NOSIG
VTUL 162300Z 00000KT 9999 SCT030 23/23 Q1013 NOSIG
VTUL 161200Z 00000KT 9999 FEW030 27/25 Q1011 NOSIG
VTUL 161100Z VRB01KT 9999 SCT030 28/26 Q1010 NOSIG
VTUL 161000Z 29003KT 260V340 9999 BKN030 30/24 Q1009 NOSIG

VTUI 171400Z 00000KT 9999 FEW030 26/24 Q1012 NOSIG
VTUI 171300Z 00000KT 9999 FEW030 28/23 Q1011 NOSIG
VTUI 171200Z 15003KT 110V170 9999 FEW030 30/22 Q1011 NOSIG
VTUI 171100Z VRB02KT 9999 FEW030 31/22 Q1009 NOSIG
VTUI 171000Z 13002KT 9999 FEW030 33/22 Q1009 NOSIG
VTUI 170900Z 14003KT 090V210 9999 FEW030 34/20 Q1009 NOSIG
VTUI 170830Z 12004KT 070V180 9999 FEW030 34/21 Q1009 NOSIG
VTUI 170700Z 08004KT 040V140 9999 SCT030 34/20 Q1010 NOSIG
VTUI 170600Z 10005KT 070V130 9999 SCT030 33/21 Q1011 NOSIG
VTUI 170500Z 10008KT 060V170 9999 FEW030 32/22 Q1012 NOSIG
VTUI 170400Z 11007KT 070V140 9999 FEW030 32/22 Q1013 NOSIG
VTUI 170300Z 11007KT 090V160 CAVOK 30/23 Q1014 NOSIG
VTUI 170200Z 13006KT 100V180 CAVOK 29/23 Q1014 NOSIG
VTUI 170100Z 14005KT 110V170 9999 FEW030 27/22 Q1013 NOSIG
VTUI 170000Z VRB02KT 9999 FEW030 26/23 Q1013 NOSIG
VTUI 162300Z 00000KT 9999 FEW030 24/23 Q1012
VTUI 161700Z 00000KT 9999 FEW040 25/24 Q1011 NOSIG
VTUI 161600Z 00000KT 9999 FEW040 25/24 Q1012 NOSIG
VTUI 161500Z VRB02KT 9999 FEW035 26/25 Q1012 NOSIG
VTUI 161400Z 00000KT 9999 FEW045 27/25 Q1011 NOSIG
VTUI 161300Z VRB02KT 9999 FEW045 28/25 Q1011 NOSIG
VTUI 161200Z 00000KT 9999 SCT045 28/25 Q1010 NOSIG
VTUI 161100Z 00000KT 9999 SCT045 29/23 Q1009 NOSIG
VTUI 161000Z 00000KT 9999 SCT045 33/22 Q1009 NOSIG

VTUW 171400Z 10005KT CAVOK 28/23 Q1012 NOSIG
VTUW 171300Z 10005KT 9999 FEW035 29/22 Q1012 NOSIG
VTUW 171200Z 14003KT 9999 FEW035 29/22 Q1011 NOSIG
VTUW 171100Z 15003KT 9999 FEW035 30/22 Q1010 NOSIG
VTUW 171000Z 16005KT 140V200 9999 FEW035 33/21 Q1010 NOSIG
VTUW 170900Z 16006KT 130V190 9999 FEW040 34/22 Q1009 NOSIG
VTUW 170800Z VRB03KT 9999 FEW045 35/22 Q1009 NOSIG
VTUW 170700Z VRB03KT 9999 FEW035 34/22 Q1010 NOSIG
VTUW 170600Z 11005KT 050V160 9999 FEW040 33/22 Q1011 NOSIG
VTUW 170500Z VRB07KT 9999 FEW035 33/22 Q1012 NOSIG
VTUW 170400Z 15006KT 080V220 9999 FEW035 32/23 Q1013 NOSIG
VTUW 170300Z 14005KT 080V200 9999 FEW035 30/22 Q1014 NOSIG
VTUW 170200Z 13005KT 090V150 CAVOK 28/23 Q1014 NOSIG
VTUW 170100Z 14007KT CAVOK 26/22 Q1014 NOSIG
VTUW 161400Z 00000KT CAVOK 27/23 Q1012 NOSIG
VTUW 161300Z 07002KT CAVOK 28/22 Q1011 NOSIG
VTUW 161200Z 00000KT CAVOK 28/23 Q1011 NOSIG
VTUW 161100Z 00000KT 9999 FEW035 29/24 Q1010 NOSIG
VTUW 161000Z 33003KT 290V010 9999 FEW035 33/21 Q1009 NOSIG